Time;durP1;ratioP1;P1;durP2;ratioP2;P2;SDS_P1;SDS_P2;PMS_P1;PMS_P2;Temp;Humidity;BMP_temperature;BMP_pressure;BME280_temperature;BME280_humidity;BME280_pressure;Samples;Min_cycle;Max_cycle;Signal;HPM_P1;HPM_P2
2022/11/20 00:01:25;;;;;;;28.00;19.98;;;-1.80;99.90;;;;;;7377226;19;20099;-46
2022/11/20 00:03:53;;;;;;;32.83;19.67;;;-1.70;99.90;;;;;;7374965;19;20022;-51
2022/11/20 00:06:20;;;;;;;30.90;20.35;;;-1.70;99.90;;;;;;7372174;19;20031;-49
2022/11/20 00:08:47;;;;;;;29.00;19.77;;;-1.60;99.90;;;;;;7370133;19;20034;-47
2022/11/20 00:11:16;;;;;;;27.67;19.80;;;-1.50;99.90;;;;;;7374755;19;20037;-51
2022/11/20 00:13:44;;;;;;;26.20;17.92;;;-1.40;99.90;;;;;;7369645;19;20039;-52
2022/11/20 00:16:13;;;;;;;26.83;18.27;;;-1.40;99.90;;;;;;7374349;19;20036;-48
2022/11/20 00:18:40;;;;;;;25.50;18.52;;;-1.30;99.90;;;;;;7367239;19;20740;-47
2022/11/20 00:21:10;;;;;;;25.05;18.75;;;-1.30;99.90;;;;;;7370480;19;20015;-47
2022/11/20 00:23:36;;;;;;;29.33;19.38;;;-1.30;99.90;;;;;;7371124;19;20014;-51
2022/11/20 00:26:04;;;;;;;26.23;18.98;;;-1.20;99.90;;;;;;7369234;19;20019;-50
2022/11/20 00:28:31;;;;;;;24.25;18.63;;;-1.20;99.90;;;;;;7370422;19;20043;-49
2022/11/20 00:31:16;;;;;;;25.55;19.23;;;-1.20;99.90;;;;;;7370438;19;20022;-46
2022/11/20 00:33:44;;;;;;;24.55;16.58;;;-1.10;99.90;;;;;;7382517;19;20010;-48
2022/11/20 00:36:23;;;;;;;26.55;17.58;;;-1.00;99.90;;;;;;7380373;19;20010;-51
2022/11/20 00:38:53;;;;;;;24.98;17.77;;;-1.00;99.90;;;;;;7384680;19;20056;-48
2022/11/20 00:41:21;;;;;;;24.23;15.38;;;-1.00;99.90;;;;;;7383384;19;20513;-48
2022/11/20 00:43:48;;;;;;;24.27;16.77;;;-0.90;99.90;;;;;;7382497;19;20018;-47
2022/11/20 00:46:17;;;;;;;25.25;17.50;;;-0.90;99.90;;;;;;7381313;19;20018;-46
2022/11/20 00:48:44;;;;;;;20.92;16.05;;;-0.90;99.90;;;;;;7384671;19;20350;-50
2022/11/20 00:51:14;;;;;;;20.70;15.93;;;-0.90;99.90;;;;;;7382274;19;20018;-46
2022/11/20 00:53:41;;;;;;;22.58;15.85;;;-0.90;99.90;;;;;;7380847;19;20021;-48
2022/11/20 00:56:11;;;;;;;19.83;14.13;;;-0.80;99.90;;;;;;7379224;19;20026;-46
2022/11/20 00:58:39;;;;;;;24.23;16.25;;;-0.90;99.90;;;;;;7384241;19;20600;-49
2022/11/20 01:01:12;;;;;;;21.15;15.80;;;-0.80;99.90;;;;;;7379437;19;20019;-45
2022/11/20 01:03:43;;;;;;;22.67;16.70;;;-0.80;99.90;;;;;;7375029;19;20469;-50
2022/11/20 01:06:21;;;;;;;23.23;15.60;;;-0.70;99.90;;;;;;7381518;19;20015;-47
2022/11/20 01:08:49;;;;;;;24.13;16.55;;;-0.70;99.90;;;;;;7376395;19;20018;-51
2022/11/20 01:11:21;;;;;;;24.42;16.02;;;-0.70;99.90;;;;;;7378927;19;20401;-47
2022/11/20 01:13:51;;;;;;;21.75;15.50;;;-0.60;99.90;;;;;;7371616;19;20028;-48
2022/11/20 01:16:20;;;;;;;21.48;15.40;;;-0.60;99.90;;;;;;7379328;19;20387;-49
2022/11/20 01:18:48;;;;;;;22.88;14.55;;;-0.60;99.90;;;;;;7375000;19;20031;-49
2022/11/20 01:21:24;;;;;;;23.10;15.65;;;-0.50;99.90;;;;;;7376852;19;20022;-47
2022/11/20 01:23:51;;;;;;;20.77;15.18;;;-0.50;99.90;;;;;;7377359;19;20022;-48
2022/11/20 01:26:21;;;;;;;18.63;14.02;;;-0.50;99.90;;;;;;7380290;19;20358;-50
2022/11/20 01:28:50;;;;;;;21.98;15.18;;;-0.50;99.90;;;;;;7379615;19;20010;-48
2022/11/20 01:31:26;;;;;;;19.63;14.52;;;-0.40;99.90;;;;;;7376906;19;20130;-46
2022/11/20 01:33:55;;;;;;;23.08;15.45;;;-0.50;99.90;;;;;;7375688;19;20021;-46
2022/11/20 01:36:23;;;;;;;20.73;15.15;;;-0.50;99.90;;;;;;7377152;19;20581;-46
2022/11/20 01:38:54;;;;;;;21.58;15.02;;;-0.50;99.90;;;;;;7379344;19;20015;-49
2022/11/20 01:44:08;;;;;;;24.27;16.42;;;-0.40;99.90;;;;;;7376865;19;20509;-47
2022/11/20 01:46:38;;;;;;;29.25;19.55;;;-0.30;99.90;;;;;;7375777;19;20026;-47
2022/11/20 01:49:15;;;;;;;23.85;15.90;;;-0.40;99.90;;;;;;7381072;19;20382;-49
2022/11/20 01:51:48;;;;;;;20.95;14.38;;;-0.40;99.90;;;;;;7377951;19;20538;-49
2022/11/20 01:54:23;;;;;;;19.70;13.63;;;-0.40;99.90;;;;;;7376660;19;20007;-51
2022/11/20 01:56:54;;;;;;;20.02;13.32;;;-0.30;99.90;;;;;;7373043;19;20018;-50
2022/11/20 01:59:23;;;;;;;;;;;-0.40;99.90;;;;;;7381008;19;20436;-46
2022/11/20 02:01:49;;;;;;;22.40;14.70;;;-0.30;99.90;;;;;;7372509;19;20002;-48
2022/11/20 02:04:16;;;;;;;20.58;14.20;;;-0.30;99.90;;;;;;7374949;19;20015;-49
2022/11/20 02:06:50;;;;;;;19.02;13.38;;;-0.30;99.90;;;;;;7377628;19;20517;-45
2022/11/20 02:09:17;;;;;;;19.40;14.45;;;-0.30;99.90;;;;;;7376810;19;20387;-53
2022/11/20 02:11:43;;;;;;;20.88;13.48;;;-0.40;99.90;;;;;;7369505;19;20050;-50
2022/11/20 02:14:13;;;;;;;20.50;14.10;;;-0.30;99.90;;;;;;7375851;19;20014;-49
2022/11/20 02:16:45;;;;;;;19.48;14.38;;;-0.30;99.90;;;;;;7376295;19;20015;-49
2022/11/20 02:19:31;;;;;;;18.42;13.13;;;-0.30;99.90;;;;;;7378525;19;20019;-51
2022/11/20 02:22:25;;;;;;;18.65;13.45;;;-0.30;99.90;;;;;;7372062;19;20452;-48
2022/11/20 02:24:53;;;;;;;18.58;13.15;;;-0.30;99.90;;;;;;7370450;19;20029;-51
2022/11/20 02:27:20;;;;;;;18.95;14.18;;;-0.30;99.90;;;;;;7374521;19;20022;-52
2022/11/20 02:29:53;;;;;;;19.05;13.60;;;-0.20;99.90;;;;;;7371770;19;20022;-52
2022/11/20 02:32:25;;;;;;;16.77;12.43;;;-0.30;99.90;;;;;;7375424;19;20395;-48
2022/11/20 02:34:51;;;;;;;17.02;12.82;;;-0.30;99.90;;;;;;7377973;19;20525;-49
2022/11/20 02:37:19;;;;;;;18.90;13.80;;;-0.20;99.90;;;;;;7378269;19;20784;-49
2022/11/20 02:39:47;;;;;;;19.67;12.35;;;-0.20;99.90;;;;;;7377089;19;20019;-51
2022/11/20 02:42:17;;;;;;;18.77;13.93;;;-0.20;99.90;;;;;;7374068;19;20019;-47
2022/11/20 02:44:44;;;;;;;18.20;12.98;;;-0.20;99.90;;;;;;7376253;19;20022;-51
2022/11/20 02:47:10;;;;;;;16.90;13.68;;;-0.10;99.90;;;;;;7371640;19;20490;-51
2022/11/20 02:49:36;;;;;;;20.63;14.32;;;-0.10;99.90;;;;;;7378102;19;20411;-50
2022/11/20 02:52:07;;;;;;;21.25;15.02;;;-0.10;99.90;;;;;;7373814;19;20110;-49
2022/11/20 02:54:33;;;;;;;22.35;15.07;;;-0.10;99.90;;;;;;7375068;19;20022;-51
2022/11/20 02:56:59;;;;;;;21.48;13.40;;;-0.10;99.90;;;;;;7373909;19;20490;-50
2022/11/20 02:59:25;;;;;;;17.73;12.48;;;-0.10;99.90;;;;;;7375068;19;20068;-48
2022/11/20 03:01:51;;;;;;;15.95;13.05;;;-0.10;99.90;;;;;;7375251;19;20533;-50
2022/11/20 03:04:18;;;;;;;19.00;12.65;;;0.00;99.90;;;;;;7369339;19;20029;-51
2022/11/20 03:06:44;;;;;;;18.48;12.50;;;-0.10;99.90;;;;;;7370354;19;20453;-47
2022/11/20 03:09:11;;;;;;;16.67;12.77;;;-0.10;99.90;;;;;;7371931;19;20026;-48
2022/11/20 03:11:37;;;;;;;16.38;12.85;;;-0.10;99.90;;;;;;7377290;19;20031;-51
2022/11/20 03:14:04;;;;;;;18.08;13.00;;;0.00;99.90;;;;;;7373550;19;20436;-49
2022/11/20 03:16:32;;;;;;;16.85;12.18;;;-0.10;99.90;;;;;;7375490;19;20022;-49
2022/11/20 03:18:59;;;;;;;18.17;12.60;;;-0.10;99.90;;;;;;7367274;19;20466;-47
2022/11/20 03:21:25;;;;;;;19.13;13.85;;;-0.10;99.90;;;;;;7374982;19;20041;-50
2022/11/20 03:23:53;;;;;;;17.27;12.77;;;-0.10;99.90;;;;;;7364714;19;20377;-49
2022/11/20 03:26:23;;;;;;;20.05;14.00;;;-0.10;99.90;;;;;;7372303;19;20427;-49
2022/11/20 03:28:54;;;;;;;17.70;12.82;;;-0.10;99.90;;;;;;7368399;19;20487;-52
2022/11/20 03:31:35;;;;;;;19.58;13.98;;;-0.10;99.90;;;;;;7374710;19;20607;-51
2022/11/20 03:34:03;;;;;;;17.65;13.50;;;0.00;99.90;;;;;;7371590;19;20022;-52
2022/11/20 03:36:30;;;;;;;18.45;13.63;;;-0.10;99.90;;;;;;7370230;19;20362;-51
2022/11/20 03:38:57;;;;;;;17.52;13.45;;;-0.10;99.90;;;;;;7367815;19;20085;-50
2022/11/20 03:41:26;;;;;;;18.05;14.00;;;0.00;99.90;;;;;;7372316;19;20010;-51
2022/11/20 03:44:01;;;;;;;19.00;14.60;;;0.00;99.90;;;;;;7373885;19;20139;-47
2022/11/20 03:46:28;;;;;;;20.60;14.02;;;0.00;99.90;;;;;;7369395;19;20027;-48
2022/11/20 03:48:55;;;;;;;20.02;14.05;;;0.00;99.90;;;;;;7367917;19;20134;-49
2022/11/20 03:51:33;;;;;;;19.35;13.90;;;0.00;99.90;;;;;;7368021;19;20014;-51
2022/11/20 03:54:03;;;;;;;18.58;14.20;;;0.00;99.90;;;;;;7371646;19;20553;-54
2022/11/20 03:56:32;;;;;;;20.73;12.95;;;0.00;99.90;;;;;;7370080;19;20025;-52
2022/11/20 03:58:58;;;;;;;18.90;12.88;;;0.00;99.90;;;;;;7364059;19;20024;-51
2022/11/20 04:01:28;;;;;;;17.75;13.40;;;-0.10;99.90;;;;;;7369773;19;20026;-50
2022/11/20 04:03:55;;;;;;;18.20;13.07;;;-0.10;99.90;;;;;;7372339;19;20052;-48
2022/11/20 04:06:36;;;;;;;19.08;14.45;;;-0.10;99.90;;;;;;7368433;19;20082;-51
2022/11/20 04:09:02;;;;;;;20.85;15.35;;;0.00;99.90;;;;;;7366884;19;20025;-51
2022/11/20 04:11:31;;;;;;;18.30;13.48;;;0.00;99.90;;;;;;7369752;19;20010;-51
2022/11/20 04:14:00;;;;;;;20.65;14.93;;;0.00;99.90;;;;;;7372096;19;20482;-52
2022/11/20 04:16:30;;;;;;;20.23;14.23;;;0.00;99.90;;;;;;7370769;19;20117;-51
2022/11/20 04:18:59;;;;;;;18.83;13.63;;;0.00;99.90;;;;;;7367352;19;20022;-50
2022/11/20 04:21:26;;;;;;;20.23;15.15;;;0.10;99.90;;;;;;7367857;19;20018;-47
2022/11/20 04:23:54;;;;;;;18.27;12.98;;;0.10;99.90;;;;;;7370390;19;20486;-51
2022/11/20 04:26:22;;;;;;;19.83;13.43;;;0.10;99.90;;;;;;7370842;19;20026;-49
2022/11/20 04:28:49;;;;;;;17.98;13.13;;;0.10;99.90;;;;;;7368534;19;20014;-49
2022/11/20 04:31:21;;;;;;;18.42;12.85;;;0.10;99.90;;;;;;7364873;19;20021;-50
2022/11/20 04:33:48;;;;;;;21.23;13.38;;;0.10;99.90;;;;;;7369525;19;20589;-48
2022/11/20 04:36:22;;;;;;;20.40;15.20;;;0.10;99.90;;;;;;7370117;19;20380;-52
2022/11/20 04:38:53;;;;;;;18.05;13.13;;;0.10;99.90;;;;;;7367157;19;20455;-48
2022/11/20 04:41:21;;;;;;;20.65;14.65;;;0.10;99.90;;;;;;7368071;19;19927;-49
2022/11/20 04:43:50;;;;;;;18.33;12.65;;;0.10;99.90;;;;;;7369727;19;20010;-48
2022/11/20 04:46:17;;;;;;;20.35;14.10;;;0.10;99.90;;;;;;7370916;19;20462;-49
2022/11/20 04:48:44;;;;;;;21.80;13.85;;;0.00;99.90;;;;;;7374470;19;20019;-46
2022/11/20 04:51:11;;;;;;;19.20;14.13;;;0.00;99.90;;;;;;7373375;19;20408;-45
2022/11/20 04:53:37;;;;;;;16.88;12.68;;;0.10;99.90;;;;;;7373822;19;20023;-48
2022/11/20 04:56:07;;;;;;;18.92;13.13;;;0.10;99.90;;;;;;7371535;19;20014;-52
2022/11/20 04:58:33;;;;;;;18.02;13.38;;;0.10;99.90;;;;;;7370702;19;20022;-50
2022/11/20 05:01:03;;;;;;;17.83;13.52;;;0.00;99.90;;;;;;7364451;19;20057;-51
2022/11/20 05:03:30;;;;;;;17.40;13.43;;;0.00;99.90;;;;;;7365236;19;20022;-50
2022/11/20 05:05:56;;;;;;;20.35;14.65;;;-0.10;99.90;;;;;;7368426;19;20030;-51
2022/11/20 05:08:22;;;;;;;17.80;12.63;;;0.00;99.90;;;;;;7370528;19;20352;-52
2022/11/20 05:10:49;;;;;;;19.15;13.65;;;0.00;99.90;;;;;;7367505;19;20026;-51
2022/11/20 05:13:15;;;;;;;16.17;13.07;;;0.00;99.90;;;;;;7368037;19;20033;-51
2022/11/20 05:15:41;;;;;;;17.77;13.63;;;0.00;99.90;;;;;;7369409;19;20022;-48
2022/11/20 05:18:07;;;;;;;16.48;12.90;;;0.10;99.90;;;;;;7370990;19;20039;-50
2022/11/20 05:20:36;;;;;;;19.27;14.35;;;0.10;99.90;;;;;;7369255;19;20759;-48
2022/11/20 05:23:02;;;;;;;19.48;14.10;;;0.00;99.90;;;;;;7375120;19;20029;-49
2022/11/20 05:25:28;;;;;;;17.80;13.23;;;0.00;99.90;;;;;;7369823;19;20042;-52
2022/11/20 05:27:54;;;;;;;16.33;12.32;;;0.00;99.90;;;;;;7375783;19;20031;-50
2022/11/20 05:30:21;;;;;;;17.60;13.10;;;0.00;99.90;;;;;;7372928;19;20022;-51
2022/11/20 05:32:47;;;;;;;18.08;12.40;;;0.10;99.90;;;;;;7373211;19;20035;-50
2022/11/20 05:35:13;;;;;;;16.90;12.80;;;0.10;99.90;;;;;;7375135;19;20039;-47
2022/11/20 05:37:42;;;;;;;18.73;13.15;;;0.10;99.90;;;;;;7377784;19;20105;-50
2022/11/20 05:40:09;;;;;;;18.52;12.98;;;0.10;99.90;;;;;;7370948;19;20029;-50
2022/11/20 05:42:36;;;;;;;17.48;13.45;;;0.10;99.90;;;;;;7371951;19;20584;-51
2022/11/20 05:45:04;;;;;;;18.63;13.38;;;0.10;99.90;;;;;;7371299;19;20015;-49
2022/11/20 05:47:34;;;;;;;16.98;11.77;;;0.10;99.90;;;;;;7375641;19;20031;-49
2022/11/20 05:50:01;;;;;;;17.58;12.52;;;0.10;99.90;;;;;;7373013;19;20018;-50
2022/11/20 05:52:31;;;;;;;16.30;12.13;;;0.10;99.90;;;;;;7369930;19;20079;-49
2022/11/20 05:54:57;;;;;;;15.25;11.40;;;0.10;99.90;;;;;;7370451;19;20033;-50
2022/11/20 05:57:24;;;;;;;16.50;12.10;;;0.10;99.90;;;;;;7371907;19;20105;-52
2022/11/20 05:59:50;;;;;;;15.73;11.18;;;0.10;99.90;;;;;;7372129;19;20604;-52
2022/11/20 06:02:17;;;;;;;16.98;12.65;;;0.20;99.90;;;;;;7373303;19;20585;-46
2022/11/20 06:04:43;;;;;;;15.70;11.35;;;0.20;99.90;;;;;;7373365;19;20014;-50
2022/11/20 06:07:10;;;;;;;17.00;11.88;;;0.20;99.90;;;;;;7371618;19;20014;-48
2022/11/20 06:09:36;;;;;;;15.93;11.23;;;0.20;99.90;;;;;;7375224;19;20042;-49
2022/11/20 06:12:03;;;;;;;15.52;11.85;;;0.20;99.90;;;;;;7371774;19;20010;-48
2022/11/20 06:14:29;;;;;;;14.45;11.15;;;0.20;99.90;;;;;;7372691;19;20658;-50
2022/11/20 06:16:56;;;;;;;18.40;12.30;;;0.20;99.90;;;;;;7370122;19;20509;-50
2022/11/20 06:19:22;;;;;;;14.82;11.07;;;0.30;99.90;;;;;;7373278;19;20015;-52
2022/11/20 06:21:49;;;;;;;19.20;12.18;;;0.20;99.90;;;;;;7370911;19;20043;-49
2022/11/20 06:24:16;;;;;;;16.60;11.60;;;0.20;99.90;;;;;;7374621;19;20021;-46
2022/11/20 06:26:42;;;;;;;18.25;13.20;;;0.20;99.90;;;;;;7376322;19;20014;-48
2022/11/20 06:29:09;;;;;;;16.60;10.93;;;0.20;99.90;;;;;;7372082;19;20426;-47
2022/11/20 06:31:37;;;;;;;14.43;11.23;;;0.20;99.90;;;;;;7372770;19;20042;-45
2022/11/20 06:34:07;;;;;;;16.17;12.10;;;0.30;99.90;;;;;;7378578;19;20039;-48
2022/11/20 06:36:34;;;;;;;16.88;11.52;;;0.30;99.90;;;;;;7377235;19;20029;-46
2022/11/20 06:39:01;;;;;;;16.80;12.35;;;0.30;99.90;;;;;;7377704;19;20025;-52
2022/11/20 06:41:27;;;;;;;16.25;12.07;;;0.20;99.90;;;;;;7367631;19;20372;-49
2022/11/20 06:43:54;;;;;;;16.63;12.60;;;0.30;99.90;;;;;;7375059;19;20014;-51
2022/11/20 06:46:20;;;;;;;16.85;12.55;;;0.30;99.90;;;;;;7373162;19;20037;-46
2022/11/20 06:48:48;;;;;;;16.48;11.50;;;0.30;99.90;;;;;;7371921;19;20571;-47
2022/11/20 06:51:15;;;;;;;16.70;11.80;;;0.20;99.90;;;;;;7367672;19;20022;-48
2022/11/20 06:53:42;;;;;;;16.73;12.57;;;0.30;99.90;;;;;;7374283;19;20026;-52
2022/11/20 06:56:08;;;;;;;19.23;12.80;;;0.30;99.90;;;;;;7369742;19;20022;-50
2022/11/20 06:58:36;;;;;;;16.90;11.40;;;0.30;99.90;;;;;;7367667;19;20592;-50
2022/11/20 07:01:05;;;;;;;17.80;12.30;;;0.20;99.90;;;;;;7366092;19;20018;-52
2022/11/20 07:03:31;;;;;;;16.08;11.88;;;0.20;99.90;;;;;;7371150;19;20366;-50
2022/11/20 07:05:59;;;;;;;17.38;12.40;;;0.20;99.90;;;;;;7374110;19;20019;-46
2022/11/20 07:08:26;;;;;;;18.52;12.73;;;0.20;99.90;;;;;;7375933;19;20405;-46
2022/11/20 07:10:52;;;;;;;17.98;11.38;;;0.20;99.90;;;;;;7375839;19;20018;-46
2022/11/20 07:13:18;;;;;;;16.92;12.30;;;0.30;99.90;;;;;;7375746;19;20011;-47
2022/11/20 07:15:44;;;;;;;16.63;12.40;;;0.30;99.90;;;;;;7372961;19;20014;-45
2022/11/20 07:18:11;;;;;;;17.90;12.02;;;0.20;99.90;;;;;;7369735;19;20018;-50
2022/11/20 07:20:37;;;;;;;16.40;12.55;;;0.30;99.90;;;;;;7368714;19;20079;-50
2022/11/20 07:23:03;;;;;;;16.45;11.77;;;0.30;99.90;;;;;;7370147;19;20021;-50
2022/11/20 07:25:30;;;;;;;17.20;12.25;;;0.30;99.90;;;;;;7370791;19;20034;-46
2022/11/20 07:28:00;;;;;;;17.92;11.57;;;0.30;99.90;;;;;;7374452;19;20069;-46
2022/11/20 07:30:27;;;;;;;15.90;11.60;;;0.40;99.90;;;;;;7374707;19;20979;-45
2022/11/20 07:32:55;;;;;;;17.30;12.15;;;0.30;99.90;;;;;;7373259;19;20611;-46
2022/11/20 07:35:22;;;;;;;19.45;13.38;;;0.30;99.90;;;;;;7375343;19;20017;-46
2022/11/20 07:37:49;;;;;;;14.75;11.32;;;0.40;99.90;;;;;;7372956;19;20440;-50
2022/11/20 07:40:16;;;;;;;15.63;11.43;;;0.40;99.90;;;;;;7372718;19;20014;-47
2022/11/20 07:42:54;;;;;;;16.15;11.63;;;0.40;99.90;;;;;;7376336;19;20035;-49
2022/11/20 07:45:21;;;;;;;18.17;11.88;;;0.30;99.90;;;;;;7375353;19;20018;-50
2022/11/20 07:47:47;;;;;;;14.77;11.85;;;0.40;99.90;;;;;;7373648;19;20019;-47
2022/11/20 07:50:15;;;;;;;15.75;12.77;;;0.50;99.90;;;;;;7371484;19;20014;-54
2022/11/20 07:52:41;;;;;;;18.05;12.77;;;0.50;99.90;;;;;;7370601;19;20029;-50
2022/11/20 07:55:09;;;;;;;17.27;11.50;;;0.50;99.90;;;;;;7369421;19;20390;-50
2022/11/20 07:57:36;;;;;;;16.58;11.95;;;0.50;99.90;;;;;;7368781;19;20045;-53
2022/11/20 08:00:05;;;;;;;15.27;11.35;;;0.50;99.90;;;;;;7369338;19;20029;-51
2022/11/20 08:06:27;;;;;;;15.93;11.50;;;0.50;99.90;;;;;;7369004;19;20107;-47
2022/11/20 08:08:53;;;;;;;21.27;13.30;;;0.60;99.90;;;;;;7367738;19;20117;-49
2022/11/20 08:14:11;;;;;;;19.33;12.38;;;0.60;99.90;;;;;;7368585;19;20018;-49
2022/11/20 08:16:46;;;;;;;16.40;11.75;;;0.60;99.90;;;;;;7362752;19;20494;-49
2022/11/20 08:19:16;;;;;;;16.42;11.85;;;0.60;99.90;;;;;;7369395;19;20022;-49
2022/11/20 08:21:47;;;;;;;;;;;0.60;99.90;;;;;;7369759;19;20015;-50
2022/11/20 08:24:14;;;;;;;15.75;11.65;;;0.60;99.90;;;;;;7370137;19;20356;-51
2022/11/20 08:26:41;;;;;;;16.00;10.52;;;0.60;99.90;;;;;;7364717;19;20491;-49
2022/11/20 08:29:08;;;;;;;15.73;11.55;;;0.70;99.90;;;;;;7369617;19;20021;-50
2022/11/20 08:31:35;;;;;;;18.33;11.70;;;0.80;99.90;;;;;;7364061;19;20367;-50
2022/11/20 08:34:02;;;;;;;15.15;11.90;;;0.80;99.90;;;;;;7363125;19;20033;-48
2022/11/20 08:36:28;;;;;;;17.40;11.52;;;0.80;99.90;;;;;;7369131;19;20383;-51
2022/11/20 08:38:55;;;;;;;17.95;12.43;;;0.90;99.90;;;;;;7367819;19;20707;-47
2022/11/20 08:41:23;;;;;;;14.55;11.13;;;0.90;99.90;;;;;;7370503;19;20030;-50
2022/11/20 08:43:52;;;;;;;14.88;10.52;;;1.00;99.90;;;;;;7363075;19;20422;-46
2022/11/20 08:46:19;;;;;;;12.68;10.07;;;1.10;99.90;;;;;;7367879;19;20018;-48
2022/11/20 08:48:46;;;;;;;13.48;10.23;;;1.10;99.90;;;;;;7366259;19;20033;-47
2022/11/20 08:51:13;;;;;;;14.90;10.45;;;1.20;99.90;;;;;;7367005;19;20014;-46
2022/11/20 08:53:48;;;;;;;14.85;10.45;;;1.20;99.90;;;;;;7370512;19;20367;-48
2022/11/20 08:56:17;;;;;;;13.15;9.98;;;1.20;99.90;;;;;;7373304;19;20025;-47
2022/11/20 08:58:47;;;;;;;13.57;10.07;;;1.20;99.90;;;;;;7373803;19;20024;-44
2022/11/20 09:01:15;;;;;;;13.23;10.13;;;1.30;99.90;;;;;;7372844;19;20028;-45
2022/11/20 09:03:43;;;;;;;13.43;10.50;;;1.30;99.90;;;;;;7370480;19;20011;-45
2022/11/20 09:06:09;;;;;;;12.57;9.00;;;1.40;99.90;;;;;;7369698;19;20029;-46
2022/11/20 09:08:36;;;;;;;11.85;9.55;;;1.40;99.90;;;;;;7370381;19;20343;-48
2022/11/20 09:11:04;;;;;;;13.98;10.70;;;1.40;99.90;;;;;;7372904;19;20018;-46
2022/11/20 09:13:31;;;;;;;13.80;10.55;;;1.50;99.90;;;;;;7369523;19;20019;-45
2022/11/20 09:16:07;;;;;;;17.58;10.77;;;1.60;99.90;;;;;;7372027;19;20043;-47
2022/11/20 09:18:38;;;;;;;12.25;8.95;;;1.60;99.90;;;;;;7372321;19;20014;-48
2022/11/20 09:21:12;;;;;;;15.20;9.77;;;1.70;99.90;;;;;;7369305;19;20550;-47
2022/11/20 09:23:47;;;;;;;13.10;9.43;;;2.30;99.90;;;;;;7373284;19;20056;-46
2022/11/20 09:26:14;;;;;;;14.48;11.00;;;2.70;99.90;;;;;;7371258;19;20550;-47
2022/11/20 09:28:41;;;;;;;14.63;10.07;;;3.10;99.90;;;;;;7373004;19;20014;-45
2022/11/20 09:31:13;;;;;;;13.45;9.70;;;3.50;99.90;;;;;;7370798;19;20037;-45
2022/11/20 09:33:45;;;;;;;11.68;9.48;;;3.70;99.90;;;;;;7372504;19;20463;-46
2022/11/20 09:36:12;;;;;;;11.88;9.60;;;4.10;99.90;;;;;;7373250;19;20026;-47
2022/11/20 09:38:38;;;;;;;11.20;9.60;;;4.90;99.90;;;;;;7374428;19;20018;-47
2022/11/20 09:41:07;;;;;;;12.70;9.40;;;5.70;99.90;;;;;;7369525;19;20042;-45
2022/11/20 09:43:49;;;;;;;14.38;10.75;;;7.00;99.90;;;;;;7376978;19;20422;-47
2022/11/20 09:46:25;;;;;;;11.73;9.23;;;7.70;99.90;;;;;;7378162;19;20118;-49
2022/11/20 09:49:16;;;;;;;12.43;9.32;;;7.70;99.90;;;;;;7373647;19;20015;-46
2022/11/20 09:51:54;;;;;;;10.32;8.95;;;7.00;99.90;;;;;;7374064;19;20039;-50
2022/11/20 09:54:26;;;;;;;10.88;9.60;;;6.40;99.90;;;;;;7372259;19;20023;-46
2022/11/20 09:57:03;;;;;;;12.63;10.23;;;5.80;99.90;;;;;;7376745;19;20019;-46
2022/11/20 09:59:43;;;;;;;13.50;10.35;;;5.40;99.90;;;;;;7374032;19;20022;-47
2022/11/20 10:02:22;;;;;;;11.65;9.57;;;5.40;99.90;;;;;;7373194;19;20387;-46
2022/11/20 10:05:14;;;;;;;13.38;10.43;;;5.40;99.90;;;;;;7373732;19;20384;-49
2022/11/20 10:07:59;;;;;;;11.90;9.23;;;5.50;99.90;;;;;;7373934;19;20018;-44
2022/11/20 10:10:57;;;;;;;12.68;9.48;;;5.70;99.90;;;;;;7372407;19;20027;-44
2022/11/20 10:14:03;;;;;;;11.80;8.80;;;6.10;99.90;;;;;;7374537;19;20033;-48
2022/11/20 10:16:48;;;;;;;9.80;7.63;;;5.80;99.90;;;;;;7378232;19;20374;-47
2022/11/20 10:19:33;;;;;;;10.60;8.85;;;6.50;99.90;;;;;;7378541;19;20026;-49
2022/11/20 10:22:24;;;;;;;9.73;8.55;;;6.30;99.90;;;;;;7373373;19;20501;-50
2022/11/20 10:24:56;;;;;;;9.82;8.80;;;6.10;99.90;;;;;;7376318;19;20385;-47
2022/11/20 10:27:45;;;;;;;10.20;8.02;;;6.00;99.90;;;;;;7374833;19;20018;-49
2022/11/20 10:30:15;;;;;;;12.10;9.40;;;5.80;99.90;;;;;;7375090;19;20692;-52
2022/11/20 10:32:48;;;;;;;11.02;9.38;;;5.80;99.90;;;;;;7371993;19;20014;-51
2022/11/20 10:35:42;;;;;;;11.43;9.13;;;6.10;99.90;;;;;;7372253;19;20022;-48
2022/11/20 10:38:17;;;;;;;11.15;8.98;;;6.20;99.90;;;;;;7375000;19;20018;-44
2022/11/20 10:40:48;;;;;;;11.25;9.50;;;6.60;99.90;;;;;;7376954;19;20478;-45
2022/11/20 10:43:25;;;;;;;11.02;8.77;;;7.80;99.90;;;;;;7374426;19;20580;-47
2022/11/20 10:46:11;;;;;;;8.57;7.68;;;8.80;99.90;;;;;;7377114;19;20015;-45
2022/11/20 10:48:40;;;;;;;11.38;8.60;;;9.30;99.90;;;;;;7374546;19;20029;-48
2022/11/20 10:51:25;;;;;;;9.35;8.35;;;8.90;99.90;;;;;;7375375;19;20026;-49
2022/11/20 10:54:20;;;;;;;9.60;7.95;;;9.00;99.90;;;;;;7370859;19;20018;-46
2022/11/20 10:56:52;;;;;;;9.93;7.97;;;8.30;99.90;;;;;;7376390;19;20049;-47
2022/11/20 10:59:41;;;;;;;8.88;7.50;;;7.90;99.90;;;;;;7373256;19;20022;-46
2022/11/20 11:02:23;;;;;;;11.48;8.35;;;7.60;99.90;;;;;;7368520;19;20030;-45
2022/11/20 11:04:54;;;;;;;11.05;8.02;;;7.30;99.90;;;;;;7364925;19;20038;-48
2022/11/20 11:07:26;;;;;;;9.88;8.35;;;7.30;99.90;;;;;;7366339;19;20498;-45
2022/11/20 11:09:54;;;;;;;9.55;8.02;;;7.00;99.90;;;;;;7371504;19;20028;-47
2022/11/20 11:12:24;;;;;;;11.02;8.02;;;6.80;99.90;;;;;;7367523;19;20044;-49
2022/11/20 11:14:52;;;;;;;10.55;8.13;;;6.70;99.90;;;;;;7367708;19;20021;-50
2022/11/20 11:17:33;;;;;;;10.93;8.98;;;6.50;99.90;;;;;;7364204;19;20051;-50
2022/11/20 11:20:01;;;;;;;9.63;7.03;;;6.80;99.90;;;;;;7369054;19;20022;-48
2022/11/20 11:22:30;;;;;;;9.52;7.25;;;6.50;99.90;;;;;;7368056;19;20018;-47
2022/11/20 11:24:56;;;;;;;9.52;7.15;;;6.50;99.90;;;;;;7369638;19;20061;-48
2022/11/20 11:27:23;;;;;;;11.52;7.65;;;6.50;99.90;;;;;;7367828;19;20021;-47
2022/11/20 11:29:49;;;;;;;8.80;7.32;;;6.20;99.90;;;;;;7372190;19;20470;-46
2022/11/20 11:32:21;;;;;;;8.93;6.78;;;6.00;99.90;;;;;;7365786;19;20022;-48
2022/11/20 11:35:05;;;;;;;;;;;5.90;99.90;;;;;;7367705;19;20022;-49
2022/11/20 11:37:37;;;;;;;9.90;7.35;;;5.80;99.90;;;;;;7370545;19;19926;-49
2022/11/20 11:40:05;;;;;;;9.00;7.47;;;5.60;99.90;;;;;;7372083;19;20038;-46
2022/11/20 11:42:31;;;;;;;9.23;7.93;;;5.60;99.90;;;;;;7370702;19;20023;-48
2022/11/20 11:45:05;;;;;;;8.95;8.05;;;5.60;99.90;;;;;;7366321;19;20511;-48
2022/11/20 11:47:37;;;;;;;7.68;6.60;;;5.70;99.90;;;;;;7363295;19;20022;-47
2022/11/20 11:50:09;;;;;;;9.55;6.82;;;5.80;99.90;;;;;;7367519;19;20018;-49
2022/11/20 11:52:41;;;;;;;7.75;5.85;;;6.20;99.90;;;;;;7367746;19;20434;-45
2022/11/20 11:55:14;;;;;;;7.68;6.47;;;7.40;99.90;;;;;;7368294;19;20051;-46
2022/11/20 11:57:46;;;;;;;7.18;5.97;;;8.60;99.90;;;;;;7364845;19;20050;-50
2022/11/20 12:00:15;;;;;;;6.93;5.75;;;9.60;99.90;;;;;;7365385;19;20497;-46
2022/11/20 12:02:45;;;;;;;7.05;5.63;;;9.80;89.60;;;;;;7367857;19;20639;-47
2022/11/20 12:05:46;;;;;;;7.00;5.45;;;10.50;92.90;;;;;;7363126;19;20015;-50
2022/11/20 12:08:30;;;;;;;7.55;6.18;;;10.50;86.30;;;;;;7367289;19;20018;-48
2022/11/20 12:11:21;;;;;;;8.07;6.00;;;10.80;86.10;;;;;;7364427;19;20010;-49
2022/11/20 12:14:14;;;;;;;7.80;5.57;;;11.00;90.70;;;;;;7365881;19;20022;-49
2022/11/20 12:16:41;;;;;;;6.57;5.65;;;10.40;73.90;;;;;;7368604;19;20022;-47
2022/11/20 12:19:13;;;;;;;6.47;5.47;;;9.90;91.90;;;;;;7362932;19;20027;-50
2022/11/20 12:22:03;;;;;;;7.40;6.18;;;9.80;94.10;;;;;;7368714;19;20025;-48
2022/11/20 12:24:44;;;;;;;8.02;6.03;;;8.70;91.90;;;;;;7366007;19;20523;-48
2022/11/20 12:27:20;;;;;;;7.20;5.97;;;8.20;91.20;;;;;;7367151;19;20018;-48
2022/11/20 12:30:03;;;;;;;7.65;6.60;;;7.70;94.50;;;;;;7373119;19;20370;-48
2022/11/20 12:32:39;;;;;;;8.23;5.82;;;7.40;94.70;;;;;;7369626;19;20494;-52
2022/11/20 12:35:27;;;;;;;8.68;7.25;;;7.30;99.20;;;;;;7370976;19;20018;-50
2022/11/20 12:38:27;;;;;;;8.20;6.25;;;7.30;99.20;;;;;;7373648;19;20018;-47
2022/11/20 12:41:04;;;;;;;8.70;6.63;;;7.20;99.80;;;;;;7371738;19;20082;-50
2022/11/20 12:46:46;;;;;;;8.75;6.47;;;6.80;99.40;;;;;;7373548;19;20022;-47
2022/11/20 12:49:30;;;;;;;9.73;7.15;;;6.50;99.20;;;;;;7371656;19;20038;-51
2022/11/20 12:51:56;;;;;;;9.07;6.65;;;6.40;97.10;;;;;;7373938;19;20636;-50
2022/11/20 12:55:01;;;;;;;8.05;6.30;;;6.10;99.90;;;;;;7371084;19;20018;-47
2022/11/20 12:57:49;;;;;;;8.95;7.28;;;5.80;99.90;;;;;;7376331;19;20015;-49
2022/11/20 13:00:19;;;;;;;9.43;7.53;;;5.70;99.90;;;;;;7371696;19;20013;-49
2022/11/20 13:02:54;;;;;;;8.40;7.47;;;5.50;99.90;;;;;;7372603;19;20010;-50
2022/11/20 13:05:27;;;;;;;8.27;6.78;;;5.50;99.90;;;;;;7369563;19;20437;-49
2022/11/20 13:07:56;;;;;;;7.97;6.53;;;5.30;99.90;;;;;;7377078;19;20011;-50
2022/11/20 13:10:49;;;;;;;10.18;7.45;;;5.20;99.90;;;;;;7374441;19;20018;-48